createdAt,value
2023-04-01T00:37:14.580Z,100130.77
2023-04-01T00:39:42.278Z,100131.23
2023-04-01T00:42:09.526Z,100129.94
2023-04-01T00:44:37.280Z,100133.23
2023-04-01T00:47:04.503Z,100131.53
2023-04-01T00:49:37.697Z,100137.10
2023-04-01T00:52:07.507Z,100135.61
2023-04-01T00:54:35.160Z,100139.94
2023-04-01T00:57:07.859Z,100143.66
2023-04-01T00:59:38.054Z,100142.33
2023-04-01T01:02:07.159Z,100145.48
2023-04-01T01:04:35.911Z,100142.27
2023-04-01T01:07:18.203Z,100146.33
2023-04-01T01:10:04.141Z,100145.73
2023-04-01T01:12:58.848Z,100150.45
2023-04-01T01:15:30.062Z,100153.64
2023-04-01T01:18:21.213Z,100155.98
2023-04-01T01:21:23.019Z,100154.58
2023-04-01T01:24:06.807Z,100159.23
2023-04-01T01:26:41.233Z,100157.77
2023-04-01T01:29:46.213Z,100159.21
2023-04-01T01:32:19.223Z,100159.23
2023-04-01T01:35:13.757Z,100158.13
2023-04-01T01:37:41.607Z,100160.56
2023-04-01T01:40:10.474Z,100159.55
2023-04-01T01:42:41.063Z,100160.20
2023-04-01T01:45:08.656Z,100151.60
2023-04-01T01:47:37.561Z,100159.02
2023-04-01T01:50:07.131Z,100159.77
2023-04-01T01:52:34.726Z,100156.79
2023-04-01T01:55:01.477Z,100160.74
2023-04-01T01:57:38.620Z,100155.91
2023-04-01T02:00:13.996Z,100156.73
2023-04-01T02:02:46.301Z,100160.66
2023-04-01T02:05:21.652Z,100158.03
2023-04-01T02:08:08.421Z,100153.78
2023-04-01T02:10:37.512Z,100153.80
2023-04-01T02:13:19.318Z,100152.08
2023-04-01T02:15:47.636Z,100150.77
2023-04-01T02:18:15.115Z,100145.07
2023-04-01T02:20:45.287Z,100148.64
2023-04-01T02:23:12.607Z,100147.17
2023-04-01T02:25:39.534Z,100148.14
2023-04-01T02:28:07.492Z,100145.77
2023-04-01T02:30:36.282Z,100145.80
2023-04-01T02:33:04.789Z,100151.08
2023-04-01T02:35:34.339Z,100149.96
2023-04-01T02:38:01.488Z,100150.86
2023-04-01T02:40:45.150Z,100151.27
2023-04-01T02:43:12.780Z,100151.48
2023-04-01T02:45:44.958Z,100147.80
2023-04-01T02:48:14.473Z,100150.83
2023-04-01T02:50:41.268Z,100152.44
2023-04-01T02:53:08.937Z,100151.44
2023-04-01T02:55:36.043Z,100149.20
2023-04-01T02:58:08.329Z,100150.14
2023-04-01T03:00:36.603Z,100149.30
2023-04-01T03:03:03.740Z,100150.67
2023-04-01T03:05:31.858Z,100151.34
2023-04-01T03:08:01.052Z,100149.27
2023-04-01T03:10:27.884Z,100150.56
2023-04-01T03:12:57.238Z,100151.27
2023-04-01T03:15:27.099Z,100154.35
2023-04-01T03:17:55.785Z,100150.50
2023-04-01T03:20:23.947Z,100153.08
2023-04-01T03:22:51.360Z,100154.94
2023-04-01T03:25:18.607Z,100154.77
2023-04-01T03:27:47.722Z,100157.10
2023-04-01T03:30:14.819Z,100156.71
2023-04-01T03:32:46.781Z,100152.59
2023-04-01T03:35:13.585Z,100152.05
2023-04-01T03:37:40.835Z,100148.23
2023-04-01T03:40:09.203Z,100151.83
2023-04-01T03:42:36.361Z,100154.04
2023-04-01T03:45:04.961Z,100157.85
2023-04-01T03:47:32.409Z,100156.98
2023-04-01T03:50:00.167Z,100159.85
2023-04-01T03:52:27.985Z,100163.57
2023-04-01T03:54:55.425Z,100162.92
2023-04-01T03:57:25.454Z,100162.38
2023-04-01T03:59:53.292Z,100166.51
2023-04-01T04:02:20.384Z,100172.33
2023-04-01T04:04:48.086Z,100168.95
2023-04-01T04:07:15.333Z,100167.14
2023-04-01T04:10:00.416Z,100166.75
2023-04-01T04:12:27.265Z,100167.71
2023-04-01T04:14:54.166Z,100170.34
2023-04-01T04:17:21.765Z,100165.45
2023-04-01T04:19:52.900Z,100166.94
2023-04-01T04:22:20.154Z,100169.22
2023-04-01T04:24:50.540Z,100163.86
2023-04-01T04:27:18.127Z,100163.86
2023-04-01T04:29:53.703Z,100165.72
2023-04-01T04:32:20.700Z,100166.77
2023-04-01T04:34:47.376Z,100164.94
2023-04-01T04:37:14.304Z,100167.41
2023-04-01T04:39:42.108Z,100171.30
2023-04-01T04:42:10.472Z,100172.93
2023-04-01T04:44:40.999Z,100173.73
2023-04-01T04:47:08.444Z,100172.05
2023-04-01T04:49:40.753Z,100173.15
2023-04-01T04:52:09.171Z,100176.71
2023-04-01T04:54:36.228Z,100173.56
2023-04-01T04:57:04.448Z,100177.13
2023-04-01T04:59:37.083Z,100181.24
2023-04-01T05:02:14.315Z,100183.65
2023-04-01T05:04:43.890Z,100182.43
2023-04-01T05:07:12.233Z,100185.22
2023-04-01T05:09:41.105Z,100184.20
2023-04-01T05:12:08.158Z,100185.23
2023-04-01T05:14:59.180Z,100190.00
2023-04-01T05:17:26.780Z,100186.66
2023-04-01T05:19:55.313Z,100184.95
2023-04-01T05:22:22.209Z,100186.16
2023-04-01T05:24:50.387Z,100183.75
2023-04-01T05:27:17.627Z,100185.84
2023-04-01T05:29:46.426Z,100187.90
2023-04-01T05:32:28.972Z,100192.30
2023-04-01T05:34:56.827Z,100189.59
2023-04-01T05:37:23.784Z,100187.89
2023-04-01T05:39:50.894Z,100193.52
2023-04-01T05:42:18.002Z,100195.51
2023-04-01T05:44:44.867Z,100196.48
2023-04-01T05:47:33.542Z,100196.89
2023-04-01T05:50:00.689Z,100198.13
2023-04-01T05:52:27.630Z,100198.80
2023-04-01T05:54:54.500Z,100202.04
2023-04-01T05:57:21.663Z,100207.07
2023-04-01T05:59:48.681Z,100203.98
2023-04-01T06:02:20.167Z,100208.64
2023-04-01T06:04:47.774Z,100209.14
2023-04-01T06:07:16.558Z,100208.46
2023-04-01T06:09:45.401Z,100213.40
2023-04-01T06:12:47.776Z,100219.58
2023-04-01T06:27:38.741Z,100217.85
2023-04-01T06:30:42.668Z,100226.71
2023-04-01T06:33:36.518Z,100227.30
2023-04-01T06:36:21.649Z,100232.42
2023-04-01T06:39:02.787Z,100234.50
2023-04-01T06:41:41.529Z,100235.98
2023-04-01T06:44:20.661Z,100238.52
2023-04-01T06:47:34.932Z,100239.61
2023-04-01T06:50:42.964Z,100243.36
2023-04-01T06:53:35.353Z,100239.91
2023-04-01T06:56:24.272Z,100241.84
2023-04-01T06:59:18.951Z,100245.14
2023-04-01T07:01:51.210Z,100246.12
2023-04-01T07:04:22.182Z,100248.02
2023-04-01T07:06:59.990Z,100250.79
2023-04-01T07:09:40.147Z,100249.14
2023-04-01T07:12:33.350Z,100252.80
2023-04-01T07:15:32.058Z,100255.68
2023-04-01T07:18:06.899Z,100259.96
2023-04-01T07:20:37.113Z,100263.23
2023-04-01T07:23:23.518Z,100263.41
2023-04-01T07:26:23.625Z,100258.90
2023-04-01T07:29:14.418Z,100260.09
2023-04-01T07:32:07.263Z,100259.69
2023-04-01T07:34:55.261Z,100258.66
2023-04-01T07:37:35.990Z,100257.47
2023-04-01T07:40:25.479Z,100256.30
2023-04-01T07:43:36.350Z,100252.11
2023-04-01T07:46:31.821Z,100251.73
2023-04-01T07:49:08.677Z,100253.00
2023-04-01T07:51:43.256Z,100254.05
2023-04-01T07:54:30.560Z,100252.85
2023-04-01T07:57:21.964Z,100255.13
2023-04-01T08:00:29.551Z,100257.83
2023-04-01T08:03:25.132Z,100259.46
2023-04-01T08:05:58.714Z,100262.86
2023-04-01T08:08:38.704Z,100265.52
2023-04-01T08:11:33.720Z,100267.05
2023-04-01T08:15:05.994Z,100273.55
2023-04-01T08:18:09.021Z,100277.99
2023-04-01T08:21:02.961Z,100280.52
2023-04-01T08:23:39.352Z,100281.70
2023-04-01T08:26:39.978Z,100281.69
2023-04-01T08:29:12.773Z,100283.05
2023-04-01T08:32:01.607Z,100282.59
2023-04-01T08:35:08.665Z,100284.73
2023-04-01T08:37:44.467Z,100282.47
2023-04-01T08:53:16.375Z,100276.98
2023-04-01T08:55:51.649Z,100273.91
2023-04-01T08:58:54.945Z,100274.17
2023-04-01T09:01:45.477Z,100276.65
2023-04-01T09:04:50.176Z,100271.61
2023-04-01T09:07:36.285Z,100273.19
2023-04-01T09:10:52.377Z,100277.45
2023-04-01T09:13:55.411Z,100276.63
2023-04-01T09:16:46.741Z,100277.98
2023-04-01T09:19:35.068Z,100279.32
2023-04-01T09:22:24.215Z,100279.44
2023-04-01T09:25:02.749Z,100278.70
2023-04-01T09:27:35.022Z,100283.80
2023-04-01T09:30:26.288Z,100283.16
2023-04-01T09:33:20.329Z,100288.20
2023-04-01T09:35:47.967Z,100284.52
2023-04-01T09:38:15.864Z,100286.41
2023-04-01T09:40:55.914Z,100280.99
2023-04-01T09:44:02.173Z,100285.20
2023-04-01T09:46:41.749Z,100280.47
2023-04-01T09:49:26.944Z,100280.23
2023-04-01T09:52:16.485Z,100285.66
2023-04-01T09:54:54.855Z,100286.58
2023-04-01T09:58:05.097Z,100289.38
2023-04-01T10:01:32.382Z,100288.77
2023-04-01T10:04:32.045Z,100292.47
2023-04-01T10:07:28.700Z,100292.83
2023-04-01T10:10:15.364Z,100285.77
2023-04-01T10:12:54.545Z,100287.52
2023-04-01T10:15:53.442Z,100282.95
2023-04-01T10:18:32.542Z,100284.30
2023-04-01T10:21:44.822Z,100282.41
2023-04-01T10:24:24.707Z,100282.80
2023-04-01T10:27:01.842Z,100280.65
2023-04-01T10:30:10.852Z,100275.27
2023-04-01T10:32:42.916Z,100273.59
2023-04-01T10:35:29.975Z,100272.11
2023-04-01T10:38:16.593Z,100269.70
2023-04-01T10:41:19.836Z,100269.98
2023-04-01T10:44:18.162Z,100267.30
2023-04-01T10:46:57.755Z,100264.95
2023-04-01T10:49:29.506Z,100269.75
2023-04-01T10:52:24.479Z,100265.09
2023-04-01T10:55:36.831Z,100263.16
2023-04-01T10:58:48.084Z,100262.52
2023-04-01T11:02:23.971Z,100253.10
2023-04-01T11:05:38.287Z,100251.65
2023-04-01T11:08:25.616Z,100247.66
2023-04-01T11:11:13.971Z,100249.55
2023-04-01T11:13:58.343Z,100249.95
2023-04-01T11:16:41.266Z,100251.91
2023-04-01T11:19:26.877Z,100253.77
2023-04-01T11:22:00.614Z,100254.15
2023-04-01T11:24:57.270Z,100255.06
2023-04-01T11:27:47.096Z,100259.08
2023-04-01T11:30:26.693Z,100253.37
2023-04-01T11:33:02.497Z,100260.25
2023-04-01T11:35:39.184Z,100261.70
2023-04-01T11:38:23.223Z,100261.59
2023-04-01T11:41:27.615Z,100262.55
2023-04-01T11:44:37.935Z,100258.77
2023-04-01T11:47:29.855Z,100258.36
2023-04-01T11:50:40.536Z,100258.95
2023-04-01T11:53:36.244Z,100261.48
2023-04-01T11:56:08.335Z,100260.03
2023-04-01T11:58:47.558Z,100262.91
2023-04-01T12:01:49.023Z,100264.96
2023-04-01T12:04:44.698Z,100266.60
2023-04-01T12:07:38.083Z,100269.98
2023-04-01T12:10:40.289Z,100270.69
2023-04-01T12:13:37.504Z,100272.11
2023-04-01T12:16:10.706Z,100272.29
2023-04-01T12:18:38.786Z,100272.80
2023-04-01T12:21:21.715Z,100269.97
2023-04-01T12:24:11.335Z,100271.29
2023-04-01T12:26:44.589Z,100268.29
2023-04-01T12:29:39.345Z,100268.73
2023-04-01T12:32:16.416Z,100271.05
2023-04-01T12:35:07.240Z,100268.70
2023-04-01T12:38:16.392Z,100262.88
2023-04-01T12:41:11.628Z,100265.00
2023-04-01T12:44:18.854Z,100257.05
2023-04-01T12:47:11.311Z,100252.02
2023-04-01T12:54:43.968Z,100252.83
2023-04-01T12:58:21.214Z,100252.48
2023-04-01T13:01:21.482Z,100251.05
2023-04-01T13:04:27.481Z,100248.90
2023-04-01T13:07:37.096Z,100248.80
2023-04-01T13:14:57.613Z,100248.44
2023-04-01T13:17:44.608Z,100245.98
2023-04-01T13:20:17.039Z,100245.41
2023-04-01T13:23:16.071Z,100245.14
2023-04-01T13:26:07.067Z,100245.51
2023-04-01T13:28:56.749Z,100246.04
2023-04-01T13:31:50.649Z,100244.69
2023-04-01T13:34:30.118Z,100247.20
2023-04-01T13:37:03.756Z,100247.80
2023-04-01T13:39:59.305Z,100246.92
2023-04-01T13:42:55.767Z,100245.51
2023-04-01T13:45:55.519Z,100245.33
2023-04-01T13:48:59.864Z,100241.16
2023-04-01T13:51:56.164Z,100239.20
2023-04-01T13:54:47.127Z,100240.36
2023-04-01T13:57:41.129Z,100239.06
2023-04-01T14:00:23.491Z,100237.34
2023-04-01T14:03:14.179Z,100232.64
2023-04-01T14:06:04.199Z,100235.14
2023-04-01T14:09:03.350Z,100231.67
2023-04-01T14:11:38.270Z,100237.01
2023-04-01T14:14:23.701Z,100238.45
2023-04-01T14:17:21.777Z,100228.92
2023-04-01T14:20:14.894Z,100227.45
2023-04-01T14:22:57.983Z,100228.85
2023-04-01T14:25:57.239Z,100231.65
2023-04-01T14:28:53.000Z,100229.42
2023-04-01T14:31:47.886Z,100228.56
2023-04-01T14:34:33.779Z,100229.56
2023-04-01T14:37:25.241Z,100231.80
2023-04-01T14:40:14.918Z,100232.96
2023-04-01T14:43:26.474Z,100233.23
2023-04-01T14:46:21.089Z,100232.48
2023-04-01T14:49:21.811Z,100232.94
2023-04-01T14:52:24.048Z,100230.75
2023-04-01T14:54:52.972Z,100228.04
2023-04-01T14:57:25.863Z,100226.70
2023-04-01T15:00:04.743Z,100222.58
2023-04-01T15:02:42.502Z,100223.86
2023-04-01T15:05:26.732Z,100214.90
2023-04-01T15:08:00.648Z,100215.53
2023-04-01T15:10:47.807Z,100217.54
2023-04-01T15:13:30.425Z,100214.59
2023-04-01T15:16:06.803Z,100210.38
2023-04-01T15:18:40.490Z,100204.20
2023-04-01T15:21:26.327Z,100199.74
2023-04-01T15:24:16.552Z,100199.13
2023-04-01T15:26:52.331Z,100202.06
2023-04-01T15:29:20.470Z,100200.27
2023-04-01T15:32:13.700Z,100199.22
2023-04-01T15:34:52.860Z,100205.52
2023-04-01T15:37:46.902Z,100204.48
2023-04-01T15:40:36.161Z,100198.15
2023-04-01T15:43:11.796Z,100204.32
2023-04-01T15:46:03.401Z,100212.35
2023-04-01T15:49:07.993Z,100212.97
2023-04-01T15:52:04.604Z,100208.45
2023-04-01T15:54:47.615Z,100213.38
2023-04-01T15:57:29.442Z,100219.46
2023-04-01T16:00:05.829Z,100225.98
2023-04-01T16:02:46.205Z,100227.78
2023-04-01T16:05:35.733Z,100232.04
2023-04-01T16:08:22.981Z,100233.02
2023-04-01T16:11:12.366Z,100231.17
2023-04-01T16:13:57.978Z,100225.73
2023-04-01T16:16:25.086Z,100224.39
2023-04-01T16:19:14.342Z,100221.25
2023-04-01T16:21:50.876Z,100219.52
2023-04-01T16:24:43.981Z,100219.89
2023-04-01T16:27:48.675Z,100219.91
2023-04-01T16:30:37.254Z,100223.02
2023-04-01T16:33:05.999Z,100231.04
2023-04-01T16:35:45.593Z,100234.50
2023-04-01T16:38:13.518Z,100239.42
2023-04-01T16:41:07.889Z,100242.34
2023-04-01T16:44:13.763Z,100245.96
2023-04-01T16:47:06.992Z,100245.58
2023-04-01T16:49:41.492Z,100244.07
2023-04-01T16:52:11.936Z,100244.14
2023-04-01T16:54:47.803Z,100241.49
2023-04-01T16:57:22.605Z,100243.68
2023-04-01T17:00:18.726Z,100248.92
2023-04-01T17:02:50.987Z,100253.67
2023-04-01T17:05:18.223Z,100257.73
2023-04-01T17:08:07.497Z,100254.98
2023-04-01T17:11:05.241Z,100253.86
2023-04-01T17:13:49.366Z,100252.92
2023-04-01T17:16:26.902Z,100251.52
2023-04-01T17:19:17.557Z,100251.67
2023-04-01T17:22:03.337Z,100256.83
2023-04-01T17:24:55.655Z,100253.98
2023-04-01T17:27:32.766Z,100253.29
2023-04-01T17:30:21.224Z,100258.41
2023-04-01T17:33:09.397Z,100262.54
2023-04-01T17:35:41.834Z,100262.81
2023-04-01T17:38:29.642Z,100262.17
2023-04-01T17:41:10.072Z,100264.30
2023-04-01T17:43:43.884Z,100266.64
2023-04-01T17:46:27.033Z,100268.31
2023-04-01T17:48:56.958Z,100263.30
2023-04-01T17:51:36.496Z,100267.65
2023-04-01T17:54:27.998Z,100267.60
2023-04-01T17:57:13.706Z,100270.23
2023-04-01T17:59:50.059Z,100273.20
2023-04-01T18:02:39.800Z,100271.58
2023-04-01T18:05:28.466Z,100269.83
2023-04-01T18:08:48.088Z,100266.96
2023-04-01T18:11:18.192Z,100259.23
2023-04-01T18:13:57.241Z,100253.42
2023-04-01T18:16:30.399Z,100250.75
2023-04-01T18:19:13.932Z,100246.88
2023-04-01T18:22:08.465Z,100240.45
2023-04-01T18:25:05.494Z,100237.42
2023-04-01T18:27:37.639Z,100242.56
2023-04-01T18:30:10.578Z,100241.73
2023-04-01T18:32:52.982Z,100238.90
2023-04-01T18:35:40.793Z,100234.80
2023-04-01T18:38:24.953Z,100231.56
2023-04-01T18:41:05.378Z,100232.11
2023-04-01T18:43:47.576Z,100232.93
2023-04-01T18:46:22.012Z,100235.47
2023-04-01T18:48:58.785Z,100232.45
2023-04-01T18:51:47.862Z,100232.40
2023-04-01T18:54:23.921Z,100235.67
2023-04-01T18:56:51.761Z,100238.98
2023-04-01T18:59:40.598Z,100236.73
2023-04-01T19:02:15.064Z,100234.96
2023-04-01T19:05:31.769Z,100233.37
2023-04-01T19:08:34.157Z,100238.04
2023-04-01T19:11:11.402Z,100239.82
2023-04-01T19:13:42.633Z,100240.42
2023-04-01T19:16:13.000Z,100238.70
2023-04-01T19:18:53.593Z,100240.80
2023-04-01T19:21:28.750Z,100241.31
2023-04-01T19:24:05.137Z,100240.35
2023-04-01T19:27:01.347Z,100242.52
2023-04-01T19:29:37.481Z,100237.80
2023-04-01T19:32:26.754Z,100237.06
2023-04-01T19:35:08.094Z,100235.84
2023-04-01T19:37:41.586Z,100237.69
2023-04-01T19:40:28.759Z,100238.48
